INFOJET
Metar trends

METAR/TAF(Classic format)(METAR/TAF Trend/History displayed directly below)
(enter CONUS apts starting with a K(eg. KMCC), enter Alaska/Hawaii apts starting with a P(eg. PANC))

Get Apt METAR code for recent obs


Get Apt METAR code for recent obs + Direct NWS Link (if METAR history doesn't display (which is often)


FAA Surface Weather Observation Stations ASOS/AWOS Readings with Map


NOAA ASOS Recent Observation History (click to select airport code)






TRK METAR history (last 5 updates)

FTUS45 KREV 150303 AAB
 TAFTRK
 TAF AMD
 KTRK 150303Z 1503/1524 22005KT 1/2SM SN FZFG OVC003
      FM151000 14005KT 3SM BR SCT003 BKN025
      FM151500 VRB05KT P6SM SCT200=

Recent Observations KTRK 150335Z AUTO 19008KT 5SM -SN SCT010 BKN018 OVC034 M02/M03 A2984 AO2 METAR KTRK 150315Z AUTO 15004KT 1SM -SN BKN008 BKN014 OVC020 M02/M03 A2985 AO2 KTRK 150255Z AUTO 21007KT 7SM -SN SCT019 BKN033 OVC040 00/M05 A2985 AO2 METAR KTRK 150235Z AUTO 17005KT 10SM SCT033 BKN042 OVC050 M01/M05 A2985 AO2 METAR KTRK 150215Z AUTO 21004KT 10SM OVC039 00/M06 A2986 AO2




AvnWthrCntr_BCAWS

ADDS - METARS form results

Aviation Digital Data Service (ADDS)

Output produced by METARs form (0358 UTC 15 December 2019)
found at http://bcaws.aviationweather.gov/metar/data/
 
KTRK 150335Z AUTO 19008KT 5SM -SN SCT010 BKN018 OVC034 M02/M03 A2984 RMK AO2
KTRK 150315Z AUTO 15004KT 1SM -SN BKN008 BKN014 OVC020 M02/M03 A2985 RMK AO2
KTRK 150255Z AUTO 21007KT 7SM -SN SCT019 BKN033 OVC040 00/M05 A2985 RMK AO2
KTRK 150235Z AUTO 17005KT 10SM SCT033 BKN042 OVC050 M01/M05 A2985 RMK AO2
KTRK 150215Z AUTO 21004KT 10SM OVC039 00/M06 A2986 RMK AO2
KTRK 150155Z AUTO 19003KT 10SM VCTS OVC037 M01/M06 A2986 RMK AO2
KTRK 150135Z AUTO 20007KT 10SM SCT040 M01/M06 A2986 RMK AO2
KTRK 150115Z AUTO 17009KT 10SM SCT020 SCT032 BKN040 00/M06 A2986 RMK AO2
KTRK 150045Z 20008KT 10SM BKN037 BKN050 00/M06 A2990
KTRK 142350Z 21008KT 10SM BKN046 01/M05 A2991
KTRK 142250Z 25004KT 10SM SCT035 BKN044 BKN050 02/M04 A2992
KTRK 150303Z 1503/1524 22005KT 1/2SM SN FZFG OVC003 
     FM151000 14005KT 3SM BR SCT003 BKN025 
     FM151500 VRB05KT P6SM SCT200
       




5 min APT wthr

CWSU Observations






RELOAD current METAR trend





METAR Numeric Codes (usually listed after RMK)

1xxxxx___6-hr maximum temp(2nd digit=0 is positive, 1 is negative)(eg. 10405 = +40.5 degrees Celsius)

2xxxxx___6-hr minimum temp (eg. 21337 = -33.7 degrees Celsius)

4/xxx___Total snow depth in inches (eg. 4/020 = snow depth of 20 inches on ground)

4xxxxxxxx___24-hr maximum/minimum temperatures, 2nd and sixth digits equal 0 for positive and 1 for negative (eg. 401551095 = 24-hr maximum temp of +15.5 degrees Celsius and a 24-hr minimum temp of -9.5 degrees Celsius)

5xxxx___3 hour pressure tendency. The second digit gives the tendency/trend: 0–3 is rising, 4 is steady and 5–8 is falling , the last 3 digits give the pressure change in tenths of a millibar in the last 3 hours. (eg 50009 indicates a rising pressure tendency/trend of 0.9 millibars.)

6xxxx___3 or 6 hour precipitation amount. The last 4 digits are the inches of rain in hundredths. (eg. 60200 = 2 inches of rain)

7xxxx___24-hour precipitation amount. The last 4 digits are the inches of rain in hundredths. (eg. 70500 = 5 inches of rain)

8/xxx___Cloud cover using WMO code. Three digit code follows the /. Lower numbers are for clearer skies, high numbers are for overcast. (I have not seen this in the NorCal airport METARs yet).

98xxx___Duration of sunshine in minutes. The last three digits after 98 are minutes. (eg. 98120 = 120 minutes of sunshine)

931xxx___Snowfall in the last 6-hours. The last three digits display snowfall in inches and tenths. (eg. 931515 = 51.5 inches of snowfall)

933xxx___Liquid water equivalent of the snow (SWE). The last three digits display liquid water equivalent of snow in inches and tenths (eg. 933055 = 5.5 inches of liquid water in snow)


Other METAR codes
SLP155 = current barometric pressure extrapolated to sea level (SLP155 equals 1015.5 hPa)

Pxxxx = liquid-equivalent precipitation accumulated during the last hour to hundredths of inches (P0050 = .5 inch of rain in the past hour)

Txxxxxxxx is the current Temperature and Dew point. The first 4 digits are temperature. The second 4 digits are Dew Point. The first digit of each group is either 0 for above zero Celsius or 1 for below zero Celsius. (eq. T00251015 = Temp +2.5C, Dew Pt -1.5C)







KSAC





KSMF





KMHR





KMCC





KEDU





KBLU





KTRK





KTVL





KRNO





KCEC





KPDX





KSEA





William R Fairchild International (Port Angeles, WA Intl Apt) (KCLM)